Terminal Aerodrome Forecast
Issued by NWS

Home | Current Version | Previous Version | Text Only | Print | Product List | Glossary On
Versions: 1 2 3 4 5 6 7 8 9 10 11 12 13 14 15 16 17 18 19 20 21
000
FTUS43 KAPX 240524
TAFAPN
TAF
KAPN 240524Z 2406/2506 30008KT P6SM SCT025 OVC040
     FM240900 31007KT P6SM BKN035
     FM241200 30004KT P6SM BKN025
     FM241500 00000KT P6SM SCT250
     FM242100 10007KT P6SM SCT140
     FM250200 10010KT P6SM BKN100 WS020/11035KT
     FM250300 10011KT P6SM BKN100 WS020/11035KT
     FM250500 11013G23KT P6SM OVC080 WS020/13045KT=

USA.gov is the U.S. government's official web portal to all federal, state and local government web resources and services.